Time;durP1;ratioP1;P1;durP2;ratioP2;P2;SDS_P1;SDS_P2;PMS_P1;PMS_P2;Temp;Humidity;BMP_temperature;BMP_pressure;BME280_temperature;BME280_humidity;BME280_pressure;Samples;Min_cycle;Max_cycle;Signal;HPM_P1;HPM_P2
2024/02/10 00:02:23;;;;;;;;;;;;;;;7.54;100.00;93126.56;10422117;28;2132;-68
2024/02/10 00:07:27;;;;;;;;;;;;;;;7.41;100.00;93130.22;10465458;28;2240;-66
2024/02/10 00:12:30;;;;;;;;;;;;;;;7.39;100.00;93132.41;10466106;28;2008;-68
2024/02/10 00:17:32;;;;;;;;;;;;;;;7.48;100.00;93124.38;10444152;28;2035;-70
2024/02/10 00:22:34;;;;;;;;;;;;;;;7.50;100.00;93117.59;10440951;28;2032;-69
2024/02/10 00:27:37;;;;;;;;;;;;;;;7.54;100.00;93115.88;10439314;28;2044;-68
2024/02/10 00:32:39;;;;;;;;;;;;;;;7.55;100.00;93117.44;10440072;28;2003;-67
2024/02/10 00:37:44;;;;;;;;;;;;;;;7.61;100.00;93126.06;10444866;28;2925;-73
2024/02/10 00:42:46;;;;;;;;;;;;;;;7.62;100.00;93121.50;10436757;28;2130;-71
2024/02/10 00:47:49;;;;;;;;;;;;;;;7.65;100.00;93120.88;10441637;28;2142;-71
2024/02/10 00:52:51;;;;;;;;;;;;;;;7.63;100.00;93118.50;10433098;28;2132;-73
2024/02/10 00:57:54;;;;;;;;;;;;;;;7.64;100.00;93128.13;10434880;28;2097;-73
2024/02/10 01:02:57;;;;;;;;;;;;;;;7.59;100.00;93129.06;10440467;28;2112;-66
2024/02/10 01:08:00;;;;;;;;;;;;;;;7.56;100.00;93119.00;10440910;28;2021;-66
2024/02/10 01:13:03;;;;;;;;;;;;;;;7.53;100.00;93126.88;10438942;28;2061;-68
2024/02/10 01:18:06;;;;;;;;;;;;;;;7.58;100.00;93121.38;10440690;28;2647;-73
2024/02/10 01:23:11;;;;;;;;;;;;;;;7.56;100.00;93119.00;10439696;28;2168;-66
2024/02/10 01:28:14;;;;;;;;;;;;;;;7.36;100.00;93114.34;10438128;28;2125;-66
2024/02/10 01:33:16;;;;;;;;;;;;;;;7.20;100.00;93113.28;10435555;28;2216;-66
2024/02/10 01:38:20;;;;;;;;;;;;;;;7.17;100.00;93111.22;10439225;28;1998;-67
2024/02/10 01:43:23;;;;;;;;;;;;;;;7.11;100.00;93105.25;10440780;28;2273;-70
2024/02/10 01:48:25;;;;;;;;;;;;;;;6.94;100.00;93102.63;10439595;28;2280;-67
2024/02/10 01:53:28;;;;;;;;;;;;;;;6.89;100.00;93100.91;10437201;28;2105;-67
2024/02/10 01:58:30;;;;;;;;;;;;;;;6.78;100.00;93095.06;10429215;28;2311;-66
2024/02/10 02:03:32;;;;;;;;;;;;;;;6.72;100.00;93095.56;10436737;28;2903;-70
2024/02/10 02:08:35;;;;;;;;;;;;;;;6.74;100.00;93090.66;10438056;28;2125;-69
2024/02/10 02:13:38;;;;;;;;;;;;;;;6.60;100.00;93090.06;10435849;28;1990;-67
2024/02/10 02:18:43;;;;;;;;;;;;;;;6.49;100.00;93092.25;10435179;28;2009;-69
2024/02/10 02:23:46;;;;;;;;;;;;;;;6.30;100.00;93099.75;10437391;28;1992;-66
2024/02/10 02:28:49;;;;;;;;;;;;;;;6.27;100.00;93103.06;10434147;28;2116;-67
2024/02/10 02:33:53;;;;;;;;;;;;;;;6.21;100.00;93097.06;10436019;28;1965;-67
2024/02/10 02:38:56;;;;;;;;;;;;;;;6.15;100.00;93103.66;10433380;28;1944;-65
2024/02/10 02:43:58;;;;;;;;;;;;;;;6.13;100.00;93103.97;10433487;28;1985;-66
2024/02/10 02:49:01;;;;;;;;;;;;;;;6.13;100.00;93095.97;10434941;28;2033;-66
2024/02/10 02:54:04;;;;;;;;;;;;;;;6.23;100.00;93098.34;10433182;28;1941;-67
2024/02/10 02:59:07;;;;;;;;;;;;;;;6.42;100.00;93084.69;10431984;28;2754;-65
2024/02/10 03:04:09;;;;;;;;;;;;;;;6.59;100.00;93083.16;10435101;28;2025;-69
2024/02/10 03:09:13;;;;;;;;;;;;;;;6.67;100.00;93079.69;10432064;28;1932;-66
2024/02/10 03:14:15;;;;;;;;;;;;;;;6.73;100.00;93065.88;10426330;28;2257;-66
2024/02/10 03:19:17;;;;;;;;;;;;;;;6.77;100.00;93056.13;10421035;28;2061;-65
2024/02/10 03:24:22;;;;;;;;;;;;;;;6.81;100.00;93058.97;10437254;28;2201;-66
2024/02/10 03:29:25;;;;;;;;;;;;;;;6.77;100.00;93058.81;10426574;28;2125;-66
2024/02/10 03:34:27;;;;;;;;;;;;;;;6.81;100.00;93055.50;10433428;28;1979;-67
2024/02/10 03:39:29;;;;;;;;;;;;;;;6.85;100.00;93054.56;10438161;28;2085;-67
2024/02/10 03:44:32;;;;;;;;;;;;;;;6.78;100.00;93047.03;10425022;28;2655;-66
2024/02/10 03:49:34;;;;;;;;;;;;;;;6.76;100.00;93048.44;10431485;28;2070;-67
2024/02/10 03:54:37;;;;;;;;;;;;;;;6.70;100.00;93060.38;10439253;28;1990;-65
2024/02/10 03:59:41;;;;;;;;;;;;;;;6.65;100.00;93052.53;10436836;28;2104;-67
2024/02/10 04:04:44;;;;;;;;;;;;;;;6.64;100.00;93050.97;10439819;28;2062;-68
2024/02/10 04:09:46;;;;;;;;;;;;;;;6.65;100.00;93047.19;10442724;28;1942;-67
2024/02/10 04:14:48;;;;;;;;;;;;;;;6.56;100.00;93044.53;10441181;28;1993;-67
2024/02/10 04:19:53;;;;;;;;;;;;;;;6.47;100.00;93041.84;10442413;28;2078;-67
2024/02/10 04:24:57;;;;;;;;;;;;;;;6.40;100.00;93040.75;10437851;28;2009;-66
2024/02/10 04:30:01;;;;;;;;;;;;;;;6.22;100.00;93040.75;10433919;28;2480;-67
2024/02/10 04:35:03;;;;;;;;;;;;;;;6.04;100.00;93054.38;10438964;28;2016;-66
2024/02/10 04:40:07;;;;;;;;;;;;;;;5.86;100.00;93059.66;10440363;28;2037;-66
2024/02/10 04:45:10;;;;;;;;;;;;;;;5.80;100.00;93060.88;10438345;28;1991;-67
2024/02/10 04:50:13;;;;;;;;;;;;;;;5.83;100.00;93059.47;10438475;28;1998;-66
2024/02/10 04:55:18;;;;;;;;;;;;;;;5.95;100.00;93067.69;10445381;28;2069;-68
2024/02/10 05:00:21;;;;;;;;;;;;;;;6.09;100.00;93056.88;10443095;28;2050;-68
2024/02/10 05:05:25;;;;;;;;;;;;;;;6.16;100.00;93062.53;10442192;28;2069;-69
2024/02/10 05:10:27;;;;;;;;;;;;;;;6.25;100.00;93071.34;10442925;28;2536;-66
2024/02/10 05:15:31;;;;;;;;;;;;;;;6.31;100.00;93072.78;10441555;28;2003;-66
2024/02/10 05:20:34;;;;;;;;;;;;;;;6.43;100.00;93067.63;10447353;28;2057;-67
2024/02/10 05:25:36;;;;;;;;;;;;;;;6.57;100.00;93056.00;10442600;28;1991;-66
2024/02/10 05:30:39;;;;;;;;;;;;;;;6.67;100.00;93058.31;10445817;28;1962;-67
2024/02/10 05:35:42;;;;;;;;;;;;;;;6.74;100.00;93043.44;10442205;28;2112;-67
2024/02/10 05:40:44;;;;;;;;;;;;;;;6.80;100.00;93038.69;10448254;28;1950;-69
2024/02/10 05:45:47;;;;;;;;;;;;;;;6.85;100.00;93022.50;10446312;28;1926;-66
2024/02/10 05:50:50;;;;;;;;;;;;;;;6.82;100.00;93012.47;10448063;28;2764;-66
2024/02/10 05:55:53;;;;;;;;;;;;;;;6.73;100.00;93009.03;10440406;28;2002;-68
2024/02/10 06:00:55;;;;;;;;;;;;;;;6.64;100.00;93008.25;10432118;28;2077;-66
2024/02/10 06:05:59;;;;;;;;;;;;;;;6.49;100.00;93010.31;10436713;28;1998;-66
2024/02/10 06:11:02;;;;;;;;;;;;;;;6.32;100.00;92996.97;10433844;28;2046;-67
2024/02/10 06:16:05;;;;;;;;;;;;;;;6.20;100.00;92999.47;10435271;28;2044;-66
2024/02/10 06:21:08;;;;;;;;;;;;;;;6.09;100.00;93003.56;10417021;28;2237;-69
2024/02/10 06:26:11;;;;;;;;;;;;;;;6.00;100.00;93000.88;10433719;28;2030;-67
2024/02/10 06:31:18;;;;;;;;;;;;;;;6.05;100.00;93018.63;10422442;28;1983;-68
2024/02/10 06:36:21;;;;;;;;;;;;;;;6.02;100.00;93014.69;10435535;28;2303;-75
2024/02/10 06:41:23;;;;;;;;;;;;;;;6.10;100.00;93016.56;10434590;28;2039;-69
2024/02/10 06:46:26;;;;;;;;;;;;;;;6.16;100.00;93019.88;10436735;28;2048;-67
2024/02/10 06:51:28;;;;;;;;;;;;;;;6.21;100.00;93022.38;10434325;28;2156;-67
2024/02/10 06:56:32;;;;;;;;;;;;;;;6.23;100.00;93017.50;10434703;28;2972;-67
2024/02/10 07:01:34;;;;;;;;;;;;;;;6.35;100.00;93014.22;10434359;28;2061;-67
2024/02/10 07:06:37;;;;;;;;;;;;;;;6.45;100.00;93012.03;10438410;28;2323;-67
2024/02/10 07:11:40;;;;;;;;;;;;;;;6.64;100.00;93013.59;10436171;28;1892;-70
2024/02/10 07:16:42;;;;;;;;;;;;;;;6.87;100.00;93012.31;10436620;28;2061;-67
2024/02/10 07:21:46;;;;;;;;;;;;;;;7.02;100.00;93014.47;10435018;28;2070;-67
2024/02/10 07:26:50;;;;;;;;;;;;;;;7.26;100.00;93013.16;10440544;28;1969;-72
2024/02/10 07:31:54;;;;;;;;;;;;;;;7.41;100.00;93015.28;10443320;28;2012;-72
2024/02/10 07:36:59;;;;;;;;;;;;;;;7.57;100.00;93012.84;10441795;28;2777;-67
2024/02/10 07:42:02;;;;;;;;;;;;;;;7.66;100.00;93015.50;10441152;28;2175;-69
2024/02/10 07:47:05;;;;;;;;;;;;;;;7.88;100.00;93025.91;10438893;28;2018;-67
2024/02/10 07:52:12;;;;;;;;;;;;;;;8.04;100.00;93008.19;10442495;28;2025;-68
2024/02/10 07:57:19;;;;;;;;;;;;;;;8.22;100.00;93000.84;10428671;28;1975;-68
2024/02/10 08:02:23;;;;;;;;;;;;;;;8.06;100.00;92992.59;10444211;28;2097;-69
2024/02/10 08:07:27;;;;;;;;;;;;;;;8.05;100.00;92992.94;10445144;28;2136;-66
2024/02/10 08:12:30;;;;;;;;;;;;;;;8.49;100.00;92996.88;10440521;28;1972;-66
2024/02/10 08:17:32;;;;;;;;;;;;;;;8.68;100.00;92998.31;10442262;28;1968;-67
2024/02/10 08:22:35;;;;;;;;;;;;;;;9.00;100.00;92999.41;10443070;28;2942;-67
2024/02/10 08:27:39;;;;;;;;;;;;;;;8.76;100.00;93002.78;10435238;28;2058;-69
2024/02/10 08:32:42;;;;;;;;;;;;;;;8.76;100.00;93008.16;10438026;28;1956;-69
2024/02/10 08:37:45;;;;;;;;;;;;;;;9.20;100.00;93006.59;10441334;28;2000;-70
2024/02/10 08:42:48;;;;;;;;;;;;;;;9.24;100.00;93020.16;10438494;28;2058;-69
2024/02/10 08:47:50;;;;;;;;;;;;;;;9.33;100.00;93026.97;10439391;28;2101;-70
2024/02/10 08:52:56;;;;;;;;;;;;;;;9.43;100.00;93010.47;10438548;28;2203;-67
2024/02/10 08:57:59;;;;;;;;;;;;;;;9.26;100.00;93010.66;10433473;28;2001;-66
2024/02/10 09:03:04;;;;;;;;;;;;;;;9.62;100.00;93028.69;10433174;28;2785;-66
2024/02/10 09:08:07;;;;;;;;;;;;;;;9.53;100.00;93024.53;10437043;28;2109;-68
2024/02/10 09:13:12;;;;;;;;;;;;;;;9.34;100.00;93027.75;10438723;28;2013;-72
2024/02/10 09:18:15;;;;;;;;;;;;;;;9.53;100.00;93036.03;10437659;28;2062;-70
2024/02/10 09:23:17;;;;;;;;;;;;;;;9.53;100.00;93025.31;10436416;28;2186;-73
2024/02/10 09:28:20;;;;;;;;;;;;;;;9.44;100.00;93027.31;10435014;28;2212;-69
2024/02/10 09:33:24;;;;;;;;;;;;;;;9.15;100.00;93009.50;10418205;28;2148;-72
2024/02/10 09:38:27;;;;;;;;;;;;;;;9.29;100.00;93007.31;10434832;28;2220;-66
2024/02/10 09:43:31;;;;;;;;;;;;;;;9.24;100.00;93012.88;10438709;28;1939;-67
2024/02/10 09:48:35;;;;;;;;;;;;;;;9.26;100.00;93012.53;10440145;28;1967;-70
2024/02/10 09:53:40;;;;;;;;;;;;;;;9.30;100.00;93026.84;10434278;28;2111;-65
2024/02/10 09:58:42;;;;;;;;;;;;;;;9.42;100.00;93018.84;10435724;28;2749;-66
2024/02/10 10:03:44;;;;;;;;;;;;;;;9.62;100.00;93014.50;10429820;28;2109;-66
2024/02/10 10:08:47;;;;;;;;;;;;;;;9.63;100.00;93022.22;10440148;28;2143;-65
2024/02/10 10:13:49;;;;;;;;;;;;;;;9.89;100.00;93015.72;10436433;28;2066;-66
2024/02/10 10:18:55;;;;;;;;;;;;;;;10.25;100.00;93010.38;10438354;28;2029;-68
2024/02/10 10:23:57;;;;;;;;;;;;;;;10.48;100.00;93013.31;10439480;28;1920;-68
2024/02/10 10:29:00;;;;;;;;;;;;;;;10.96;100.00;93002.75;10430953;28;2000;-65
2024/02/10 10:34:03;;;;;;;;;;;;;;;11.32;100.00;92983.75;10436239;28;2053;-66
2024/02/10 10:39:06;;;;;;;;;;;;;;;11.50;100.00;92980.72;10439339;28;1886;-66
2024/02/10 10:44:09;;;;;;;;;;;;;;;11.73;100.00;92970.13;10436423;28;2707;-71
2024/02/10 10:49:11;;;;;;;;;;;;;;;11.52;100.00;92943.50;10436558;28;2065;-67
2024/02/10 10:54:17;;;;;;;;;;;;;;;10.88;100.00;92931.13;10434104;28;1932;-65
2024/02/10 10:59:20;;;;;;;;;;;;;;;11.00;100.00;92912.25;10433201;28;2040;-65
2024/02/10 11:04:25;;;;;;;;;;;;;;;10.94;100.00;92913.63;10443311;28;2044;-66
2024/02/10 11:09:28;;;;;;;;;;;;;;;10.85;100.00;92905.72;10439315;28;2002;-65
2024/02/10 11:14:30;;;;;;;;;;;;;;;10.82;100.00;92912.59;10431347;28;2270;-67
2024/02/10 11:19:33;;;;;;;;;;;;;;;10.69;100.00;92900.34;10437094;28;2187;-67
2024/02/10 11:24:36;;;;;;;;;;;;;;;10.53;100.00;92881.50;10443274;28;2784;-69
2024/02/10 11:29:39;;;;;;;;;;;;;;;10.48;100.00;92881.72;10428644;28;2074;-67
2024/02/10 11:34:42;;;;;;;;;;;;;;;10.63;100.00;92882.13;10430245;28;2010;-66
2024/02/10 11:39:45;;;;;;;;;;;;;;;10.78;100.00;92874.09;10431852;28;2217;-66
2024/02/10 11:44:47;;;;;;;;;;;;;;;10.82;100.00;92863.44;10430542;28;2040;-67
2024/02/10 11:49:50;;;;;;;;;;;;;;;10.49;100.00;92852.97;10431008;28;2041;-67
2024/02/10 11:54:54;;;;;;;;;;;;;;;10.36;100.00;92841.50;10438358;28;2132;-66
2024/02/10 11:59:57;;;;;;;;;;;;;;;10.22;100.00;92835.72;10433136;28;1989;-68
2024/02/10 12:04:59;;;;;;;;;;;;;;;10.28;100.00;92826.34;10434706;28;1992;-65
2024/02/10 12:10:02;;;;;;;;;;;;;;;10.42;100.00;92829.38;10432697;28;2690;-67
2024/02/10 12:15:05;;;;;;;;;;;;;;;10.50;100.00;92811.56;10432765;28;2207;-67
2024/02/10 12:20:12;;;;;;;;;;;;;;;10.47;100.00;92804.19;10443637;28;1899;-67
2024/02/10 12:25:14;;;;;;;;;;;;;;;10.24;100.00;92807.47;10433779;28;2066;-67
2024/02/10 12:30:18;;;;;;;;;;;;;;;10.35;100.00;92806.94;10440107;28;2073;-67
2024/02/10 12:35:21;;;;;;;;;;;;;;;10.54;100.00;92815.13;10437365;28;2145;-67
2024/02/10 12:40:26;;;;;;;;;;;;;;;10.64;100.00;92803.88;10435976;28;1897;-67
2024/02/10 12:45:28;;;;;;;;;;;;;;;10.83;100.00;92789.75;10438740;28;2124;-66
2024/02/10 12:50:31;;;;;;;;;;;;;;;11.04;100.00;92774.13;10442507;28;2169;-67
2024/02/10 12:55:38;;;;;;;;;;;;;;;11.31;100.00;92755.50;10435760;28;2323;-67
2024/02/10 13:00:40;;;;;;;;;;;;;;;11.88;100.00;92752.09;10431203;28;1944;-69
2024/02/10 13:05:43;;;;;;;;;;;;;;;12.32;100.00;92751.00;10440220;28;2793;-67
2024/02/10 13:10:46;;;;;;;;;;;;;;;12.48;100.00;92746.31;10419489;28;2014;-68
2024/02/10 13:15:49;;;;;;;;;;;;;;;12.52;100.00;92736.34;10439283;28;1966;-67
2024/02/10 13:20:51;;;;;;;;;;;;;;;12.76;100.00;92743.28;10439647;28;2097;-67
2024/02/10 13:25:53;;;;;;;;;;;;;;;13.02;100.00;92733.69;10438044;28;1985;-67
2024/02/10 13:30:56;;;;;;;;;;;;;;;13.12;100.00;92724.97;10440656;28;2136;-70
2024/02/10 13:35:59;;;;;;;;;;;;;;;13.27;100.00;92721.38;10436830;28;2069;-67
2024/02/10 14:13:20;;;;;;;;;;;;;;;14.13;85.67;92690.03;10439608;28;2037;-67
2024/02/10 14:18:25;;;;;;;;;;;;;;;14.11;83.24;92679.56;10442923;28;2085;-68
2024/02/10 14:23:28;;;;;;;;;;;;;;;14.03;83.56;92692.22;10434010;28;2155;-71
2024/02/10 14:28:38;;;;;;;;;;;;;;;14.09;81.73;92670.28;10432177;28;2045;-72
2024/02/10 14:33:41;;;;;;;;;;;;;;;14.04;80.43;92669.47;10422541;28;2062;-68
2024/02/10 14:38:59;;;;;;;;;;;;;;;13.98;79.69;92662.84;10433622;28;2025;-67
2024/02/10 14:44:02;;;;;;;;;;;;;;;13.87;81.58;92661.19;10437714;28;2417;-66
2024/02/10 14:49:05;;;;;;;;;;;;;;;13.86;83.57;92665.03;10437321;28;2072;-68
2024/02/10 14:54:09;;;;;;;;;;;;;;;13.68;86.73;92660.22;10434217;28;1887;-66
2024/02/10 14:59:12;;;;;;;;;;;;;;;13.55;89.60;92655.41;10442699;28;1871;-66
2024/02/10 15:04:15;;;;;;;;;;;;;;;13.42;93.77;92658.38;10445037;28;2076;-67
2024/02/10 15:09:17;;;;;;;;;;;;;;;13.19;97.07;92655.72;10440868;28;2101;-68
2024/02/10 15:14:19;;;;;;;;;;;;;;;13.09;100.00;92655.59;10432151;28;2036;-67
2024/02/10 15:19:22;;;;;;;;;;;;;;;12.95;100.00;92645.38;10437427;28;2236;-67
2024/02/10 15:24:24;;;;;;;;;;;;;;;12.75;100.00;92639.31;10437624;28;2097;-66
2024/02/10 15:29:27;;;;;;;;;;;;;;;12.62;100.00;92627.19;10429735;28;2207;-67
2024/02/10 15:34:29;;;;;;;;;;;;;;;12.56;100.00;92625.94;10434610;28;2351;-69
2024/02/10 15:39:32;;;;;;;;;;;;;;;12.32;100.00;92619.03;10431248;28;2121;-68
2024/02/10 15:44:35;;;;;;;;;;;;;;;12.21;100.00;92618.84;10429126;28;2125;-67
2024/02/10 15:49:37;;;;;;;;;;;;;;;12.02;100.00;92624.31;10439437;28;1987;-67
2024/02/10 15:54:40;;;;;;;;;;;;;;;11.96;100.00;92617.66;10438462;28;2133;-67
2024/02/10 15:59:42;;;;;;;;;;;;;;;11.83;100.00;92619.75;10420402;28;1926;-67
2024/02/10 16:04:46;;;;;;;;;;;;;;;11.79;100.00;92613.50;10440948;28;2057;-72
2024/02/10 16:09:49;;;;;;;;;;;;;;;11.67;100.00;92603.69;10445185;28;1993;-70
2024/02/10 16:14:52;;;;;;;;;;;;;;;11.43;100.00;92606.69;10439504;28;2535;-67
2024/02/10 16:19:54;;;;;;;;;;;;;;;11.21;100.00;92600.91;10441446;28;2061;-68
2024/02/10 16:24:56;;;;;;;;;;;;;;;11.08;100.00;92594.91;10440859;28;2237;-67
2024/02/10 16:30:00;;;;;;;;;;;;;;;11.04;100.00;92604.00;10445593;28;2077;-68
2024/02/10 16:35:05;;;;;;;;;;;;;;;10.90;100.00;92612.56;10448368;28;1985;-67
2024/02/10 16:40:09;;;;;;;;;;;;;;;10.81;100.00;92609.28;10445510;28;2109;-67
2024/02/10 16:45:11;;;;;;;;;;;;;;;10.74;100.00;92595.69;10442551;28;2241;-68
2024/02/10 16:50:14;;;;;;;;;;;;;;;10.45;100.00;92597.00;10439330;28;1975;-68
2024/02/10 16:55:16;;;;;;;;;;;;;;;10.51;100.00;92596.38;10447461;28;2060;-66
2024/02/10 17:00:25;;;;;;;;;;;;;;;10.38;100.00;92602.22;10439107;28;1930;-70
2024/02/10 17:05:28;;;;;;;;;;;;;;;10.23;100.00;92604.53;10445861;28;2145;-67
2024/02/10 17:10:34;;;;;;;;;;;;;;;10.16;100.00;92599.00;10445234;28;2270;-70
2024/02/10 17:15:37;;;;;;;;;;;;;;;10.07;100.00;92603.00;10414662;28;2076;-74
2024/02/10 17:20:39;;;;;;;;;;;;;;;9.93;100.00;92600.75;10440268;28;1958;-66
2024/02/10 17:25:43;;;;;;;;;;;;;;;9.87;100.00;92600.22;10441851;28;2038;-67
2024/02/10 17:30:48;;;;;;;;;;;;;;;9.82;100.00;92602.38;10435469;28;2112;-66
2024/02/10 17:35:50;;;;;;;;;;;;;;;9.74;100.00;92598.75;10413176;28;2132;-66
2024/02/10 17:40:54;;;;;;;;;;;;;;;9.59;100.00;92600.28;10439061;28;2009;-66
2024/02/10 17:45:56;;;;;;;;;;;;;;;9.43;100.00;92596.81;10432221;28;1973;-66
2024/02/10 17:50:59;;;;;;;;;;;;;;;9.20;100.00;92600.03;10432564;28;2069;-66
2024/02/10 17:56:02;;;;;;;;;;;;;;;9.28;100.00;92600.22;10427010;28;2547;-66
2024/02/10 18:01:05;;;;;;;;;;;;;;;9.20;100.00;92601.91;10438775;28;1884;-67
2024/02/10 18:06:10;;;;;;;;;;;;;;;9.15;100.00;92604.84;10437053;28;1945;-73
2024/02/10 18:11:15;;;;;;;;;;;;;;;9.13;100.00;92609.78;10436228;28;2085;-69
2024/02/10 18:16:18;;;;;;;;;;;;;;;9.07;100.00;92611.13;10430361;28;1921;-67
2024/02/10 18:21:21;;;;;;;;;;;;;;;9.11;100.00;92612.03;10429945;28;2001;-70
2024/02/10 18:26:24;;;;;;;;;;;;;;;8.98;100.00;92605.16;10432237;28;1912;-73
2024/02/10 18:31:26;;;;;;;;;;;;;;;8.96;100.00;92607.38;10436211;28;2028;-68
2024/02/10 18:36:29;;;;;;;;;;;;;;;8.84;100.00;92614.34;10440062;28;2404;-66
2024/02/10 18:41:33;;;;;;;;;;;;;;;8.86;100.00;92603.28;10433869;28;2045;-66
2024/02/10 18:46:36;;;;;;;;;;;;;;;8.79;100.00;92609.22;10418542;28;2192;-66
2024/02/10 18:51:38;;;;;;;;;;;;;;;8.66;100.00;92613.81;10433631;28;1993;-66
2024/02/10 18:56:42;;;;;;;;;;;;;;;8.58;100.00;92611.25;10430170;28;2054;-67
2024/02/10 19:01:53;;;;;;;;;;;;;;;8.50;100.00;92612.16;10427895;28;2227;-69
2024/02/10 19:06:56;;;;;;;;;;;;;;;8.46;100.00;92604.06;10430774;28;2069;-69
2024/02/10 19:11:59;;;;;;;;;;;;;;;8.50;100.00;92615.63;10440215;28;1965;-68
2024/02/10 19:17:05;;;;;;;;;;;;;;;8.46;100.00;92608.59;10431757;28;2594;-70
2024/02/10 19:22:07;;;;;;;;;;;;;;;8.41;100.00;92609.63;10441063;28;1924;-67
2024/02/10 19:27:11;;;;;;;;;;;;;;;8.35;100.00;92613.63;10445092;28;2001;-66
2024/02/10 19:32:14;;;;;;;;;;;;;;;8.36;100.00;92607.19;10449893;28;2033;-64
2024/02/10 19:37:17;;;;;;;;;;;;;;;8.35;100.00;92605.59;10441891;28;2046;-65
2024/02/10 19:42:20;;;;;;;;;;;;;;;8.32;100.00;92608.91;10429220;28;2018;-65
2024/02/10 19:47:23;;;;;;;;;;;;;;;8.24;100.00;92623.22;10441522;28;1906;-66
2024/02/10 19:52:26;;;;;;;;;;;;;;;8.09;100.00;92622.78;10439878;28;2121;-65
2024/02/10 19:57:29;;;;;;;;;;;;;;;8.06;100.00;92631.44;10448635;28;2022;-66
2024/02/10 20:02:32;;;;;;;;;;;;;;;8.03;100.00;92624.09;10445447;28;2671;-66
2024/02/10 20:07:34;;;;;;;;;;;;;;;8.06;100.00;92625.31;10442594;28;1986;-66
2024/02/10 20:12:38;;;;;;;;;;;;;;;8.05;100.00;92632.56;10443701;28;2077;-66
2024/02/10 20:17:46;;;;;;;;;;;;;;;8.06;100.00;92623.44;10437414;28;1965;-65
2024/02/10 20:22:50;;;;;;;;;;;;;;;7.98;100.00;92624.31;10442807;28;2070;-65
2024/02/10 20:27:54;;;;;;;;;;;;;;;8.01;100.00;92630.88;10442858;28;2060;-66
2024/02/10 20:32:57;;;;;;;;;;;;;;;8.05;100.00;92623.75;10444518;28;1937;-71
2024/02/10 20:37:59;;;;;;;;;;;;;;;8.05;100.00;92627.22;10444671;28;2117;-68
2024/02/10 20:43:02;;;;;;;;;;;;;;;7.89;100.00;92634.34;10444550;28;1924;-66
2024/02/10 20:48:05;;;;;;;;;;;;;;;7.93;100.00;92629.88;10441037;28;2720;-65
2024/02/10 20:53:09;;;;;;;;;;;;;;;7.94;100.00;92642.13;10441099;28;2029;-66
2024/02/10 20:58:16;;;;;;;;;;;;;;;7.99;100.00;92638.47;10440268;28;1931;-67
2024/02/10 21:03:20;;;;;;;;;;;;;;;7.95;100.00;92635.69;10438293;28;2132;-67
2024/02/10 21:08:23;;;;;;;;;;;;;;;8.05;100.00;92645.94;10421970;28;1998;-66
2024/02/10 21:13:25;;;;;;;;;;;;;;;7.97;100.00;92652.19;10434934;28;2080;-66
2024/02/10 21:18:28;;;;;;;;;;;;;;;8.03;100.00;92656.19;10444714;28;1362;-68
2024/02/10 21:23:34;;;;;;;;;;;;;;;7.95;100.00;92661.63;10452115;28;1635;-67
2024/02/10 21:28:39;;;;;;;;;;;;;;;8.00;100.00;92653.41;10422256;28;1918;-68
2024/02/10 21:33:41;;;;;;;;;;;;;;;8.01;100.00;92654.97;10442965;28;1855;-70
2024/02/10 21:38:44;;;;;;;;;;;;;;;8.07;100.00;92670.47;10450998;28;2586;-67
2024/02/10 21:43:47;;;;;;;;;;;;;;;8.08;100.00;92679.28;10435756;28;1717;-65
2024/02/10 21:48:50;;;;;;;;;;;;;;;8.10;100.00;92685.84;10444421;28;1988;-66
2024/02/10 21:53:54;;;;;;;;;;;;;;;8.11;100.00;92694.66;10446153;28;1639;-66
2024/02/10 21:58:59;;;;;;;;;;;;;;;8.13;100.00;92698.56;10446299;28;1938;-66
2024/02/10 22:04:03;;;;;;;;;;;;;;;8.03;100.00;92703.56;10437118;28;1663;-66
2024/02/10 22:09:06;;;;;;;;;;;;;;;7.90;100.00;92710.78;10437695;28;1918;-66
2024/02/10 22:14:09;;;;;;;;;;;;;;;7.84;100.00;92712.13;10430321;28;2797;-65
2024/02/10 22:19:12;;;;;;;;;;;;;;;7.77;100.00;92717.22;10449123;28;1812;-66
2024/02/10 22:24:15;;;;;;;;;;;;;;;7.64;100.00;92715.63;10453693;28;1580;-69
2024/02/10 22:29:18;;;;;;;;;;;;;;;7.64;100.00;92716.41;10442975;28;1905;-66
2024/02/10 22:34:20;;;;;;;;;;;;;;;7.63;100.00;92724.72;10445004;28;1718;-66
2024/02/10 22:39:26;;;;;;;;;;;;;;;7.65;100.00;92730.56;10425873;28;1551;-68
2024/02/10 22:44:28;;;;;;;;;;;;;;;7.74;100.00;92724.00;10438491;28;1459;-65
2024/02/10 22:49:30;;;;;;;;;;;;;;;7.79;100.00;92720.34;10448715;28;1997;-65
2024/02/10 22:54:33;;;;;;;;;;;;;;;7.85;100.00;92717.13;10449529;28;1448;-65
2024/02/10 22:59:39;;;;;;;;;;;;;;;7.88;100.00;92718.34;10444228;28;2522;-66
2024/02/10 23:04:42;;;;;;;;;;;;;;;7.89;100.00;92729.81;10440229;28;1547;-66
2024/02/10 23:09:46;;;;;;;;;;;;;;;7.86;100.00;92725.94;10450977;28;1918;-67
2024/02/10 23:14:51;;;;;;;;;;;;;;;7.99;100.00;92732.09;10441453;28;1705;-65
2024/02/10 23:19:57;;;;;;;;;;;;;;;8.04;100.00;92732.66;10442516;28;1582;-69
2024/02/10 23:25:00;;;;;;;;;;;;;;;8.12;100.00;92733.69;10439049;28;1574;-65
2024/02/10 23:30:03;;;;;;;;;;;;;;;8.15;100.00;92726.91;10427329;28;2051;-65
2024/02/10 23:35:08;;;;;;;;;;;;;;;8.13;100.00;92729.88;10434998;28;1649;-68
2024/02/10 23:40:13;;;;;;;;;;;;;;;8.20;100.00;92732.00;10452973;28;1576;-66
2024/02/10 23:45:17;;;;;;;;;;;;;;;8.24;100.00;92736.38;10442189;28;2316;-66
2024/02/10 23:50:19;;;;;;;;;;;;;;;8.29;100.00;92725.47;10442760;28;1891;-73
2024/02/10 23:55:23;;;;;;;;;;;;;;;8.38;100.00;92733.41;10445088;28;1476;-67
